Time;durP1;ratioP1;P1;durP2;ratioP2;P2;SDS_P1;SDS_P2;PMS_P1;PMS_P2;Temp;Humidity;BMP_temperature;BMP_pressure;BME280_temperature;BME280_humidity;BME280_pressure;Samples;Min_cycle;Max_cycle;Signal;HPM_P1;HPM_P2
2024/02/13 00:03:02;;;;;;;6.23;2.70;;;;;;;;;;4900393;29;20186;-86
2024/02/13 00:06:06;;;;;;;5.00;2.40;;;;;;;;;;4899472;29;20233;-86
2024/02/13 00:09:10;;;;;;;4.80;2.33;;;;;;;;;;4889090;29;20196;-85
2024/02/13 00:12:14;;;;;;;6.77;2.40;;;;;;;;;;4900242;29;20185;-86
2024/02/13 00:15:20;;;;;;;5.97;2.53;;;;;;;;;;4911067;29;20217;-86
2024/02/13 00:18:27;;;;;;;5.27;2.50;;;;;;;;;;4901139;29;20631;-86
2024/02/13 00:21:33;;;;;;;4.20;2.47;;;;;;;;;;4901064;29;20186;-86
2024/02/13 00:24:38;;;;;;;5.67;2.37;;;;;;;;;;4900935;29;20198;-86
2024/02/13 00:27:42;;;;;;;6.17;2.37;;;;;;;;;;4900171;29;20174;-86
2024/02/13 00:30:46;;;;;;;6.57;2.70;;;;;;;;;;4900255;29;20212;-86
2024/02/13 00:34:10;;;;;;;4.20;2.60;;;;;;;;;;4900658;29;20182;-86
2024/02/13 00:37:14;;;;;;;5.83;2.83;;;;;;;;;;4888896;29;20181;-86
2024/02/13 00:40:19;;;;;;;5.23;2.47;;;;;;;;;;4900421;29;20189;-86
2024/02/13 00:43:23;;;;;;;3.33;2.20;;;;;;;;;;4899686;29;20189;-86
2024/02/13 00:46:29;;;;;;;4.90;2.13;;;;;;;;;;4899530;29;20694;-86
2024/02/13 00:49:33;;;;;;;5.70;2.40;;;;;;;;;;4900178;29;20193;-86
2024/02/13 00:52:42;;;;;;;5.23;2.40;;;;;;;;;;4900451;29;20646;-86
2024/02/13 00:55:46;;;;;;;6.53;2.93;;;;;;;;;;4945355;28;20215;-86
2024/02/13 00:58:50;;;;;;;4.27;2.67;;;;;;;;;;4888793;29;20189;-86
2024/02/13 01:01:54;;;;;;;4.87;2.33;;;;;;;;;;4900237;29;20194;-86
2024/02/13 01:04:58;;;;;;;5.97;2.70;;;;;;;;;;4889153;29;20190;-86
2024/02/13 01:08:03;;;;;;;3.10;2.10;;;;;;;;;;4899779;29;20178;-86
2024/02/13 01:11:07;;;;;;;4.33;2.50;;;;;;;;;;4889146;29;20190;-86
2024/02/13 01:14:11;;;;;;;5.50;2.60;;;;;;;;;;4899196;29;20181;-86
2024/02/13 01:17:16;;;;;;;4.40;2.27;;;;;;;;;;4888938;29;20186;-86
2024/02/13 01:20:20;;;;;;;2.93;1.97;;;;;;;;;;4899542;29;20193;-86
2024/02/13 01:23:24;;;;;;;4.67;2.23;;;;;;;;;;4888782;29;20651;-87
2024/02/13 01:26:29;;;;;;;4.27;2.07;;;;;;;;;;4887540;29;20225;-86
2024/02/13 01:29:35;;;;;;;6.23;2.17;;;;;;;;;;4898216;29;20547;-86
2024/02/13 01:32:40;;;;;;;5.30;2.10;;;;;;;;;;4887652;29;20569;-86
2024/02/13 01:35:44;;;;;;;5.87;2.07;;;;;;;;;;4887505;29;20582;-86
2024/02/13 01:38:48;;;;;;;7.23;2.33;;;;;;;;;;4887944;29;20186;-86
2024/02/13 01:41:53;;;;;;;5.60;2.20;;;;;;;;;;4908983;29;20193;-86
2024/02/13 01:44:57;;;;;;;4.07;2.20;;;;;;;;;;4898065;29;20186;-86
2024/02/13 01:48:04;;;;;;;3.57;2.10;;;;;;;;;;4898314;29;20174;-86
2024/02/13 01:51:11;;;;;;;3.97;2.10;;;;;;;;;;4887189;29;20190;-86
2024/02/13 01:54:16;;;;;;;4.47;2.10;;;;;;;;;;4897991;29;20193;-86
2024/02/13 01:57:23;;;;;;;5.00;2.10;;;;;;;;;;4898499;29;20193;-86
2024/02/13 02:00:27;;;;;;;4.20;2.00;;;;;;;;;;4898142;29;20186;-86
2024/02/13 02:03:34;;;;;;;7.10;2.00;;;;;;;;;;4897577;29;20186;-86
2024/02/13 02:06:41;;;;;;;4.63;1.97;;;;;;;;;;4897524;29;20236;-86
2024/02/13 02:09:45;;;;;;;4.07;1.93;;;;;;;;;;4898658;29;20639;-86
2024/02/13 02:12:50;;;;;;;5.97;2.20;;;;;;;;;;4887107;29;20256;-86
2024/02/13 02:15:55;;;;;;;3.20;1.77;;;;;;;;;;4897945;29;20217;-86
2024/02/13 02:19:00;;;;;;;5.93;2.00;;;;;;;;;;4898494;29;20190;-86
2024/02/13 02:22:06;;;;;;;5.70;2.10;;;;;;;;;;4898011;29;20185;-86
2024/02/13 02:25:11;;;;;;;5.90;2.20;;;;;;;;;;4897266;29;20221;-86
2024/02/13 02:28:20;;;;;;;8.20;2.23;;;;;;;;;;4887090;29;20178;-86
2024/02/13 02:31:33;;;;;;;5.40;2.40;;;;;;;;;;4888163;29;20186;-86
2024/02/13 02:34:39;;;;;;;6.77;2.13;;;;;;;;;;4886727;29;20190;-86
2024/02/13 02:37:47;;;;;;;5.23;2.00;;;;;;;;;;4897324;29;20182;-87
2024/02/13 02:40:51;;;;;;;5.67;2.47;;;;;;;;;;4886299;29;20193;-86
2024/02/13 02:43:56;;;;;;;6.77;2.70;;;;;;;;;;4897312;29;20190;-86
2024/02/13 02:47:01;;;;;;;5.10;2.30;;;;;;;;;;4897257;29;20229;-86
2024/02/13 02:50:07;;;;;;;4.50;2.10;;;;;;;;;;4896673;29;20190;-86
2024/02/13 02:53:11;;;;;;;8.33;2.30;;;;;;;;;;4897073;29;20182;-86
2024/02/13 02:56:17;;;;;;;5.07;2.20;;;;;;;;;;4885977;29;20594;-86
2024/02/13 02:59:21;;;;;;;5.20;2.20;;;;;;;;;;4886050;29;20190;-86
2024/02/13 03:02:25;;;;;;;4.93;2.30;;;;;;;;;;4897813;29;20182;-86
2024/02/13 03:05:29;;;;;;;6.03;2.20;;;;;;;;;;4899239;29;20705;-86
2024/02/13 03:08:33;;;;;;;3.67;2.00;;;;;;;;;;4899964;29;20182;-86
2024/02/13 03:11:38;;;;;;;6.43;2.40;;;;;;;;;;4901032;29;20197;-87
2024/02/13 03:14:43;;;;;;;5.67;2.30;;;;;;;;;;4899670;29;20189;-86
2024/02/13 03:17:48;;;;;;;8.57;2.13;;;;;;;;;;4899789;29;20658;-87
2024/02/13 03:20:54;;;;;;;5.63;2.10;;;;;;;;;;4899337;29;20635;-86
2024/02/13 03:23:58;;;;;;;7.87;2.57;;;;;;;;;;4889345;29;20194;-86
2024/02/13 03:27:02;;;;;;;7.43;2.17;;;;;;;;;;4899794;29;20225;-86
2024/02/13 03:30:27;;;;;;;5.50;2.40;;;;;;;;;;4890507;29;20186;-86
2024/02/13 03:33:31;;;;;;;8.63;2.17;;;;;;;;;;4898919;29;20550;-86
2024/02/13 03:36:35;;;;;;;5.57;2.20;;;;;;;;;;4899682;29;20225;-86
2024/02/13 03:39:42;;;;;;;4.70;2.10;;;;;;;;;;4899311;29;20185;-86
2024/02/13 03:42:47;;;;;;;6.30;1.70;;;;;;;;;;4888262;29;20545;-86
2024/02/13 03:45:51;;;;;;;7.50;2.13;;;;;;;;;;4944753;28;20217;-86
2024/02/13 03:48:56;;;;;;;3.80;1.93;;;;;;;;;;4898823;29;20174;-86
2024/02/13 03:52:00;;;;;;;5.30;1.90;;;;;;;;;;4899472;29;20189;-86
2024/02/13 03:55:05;;;;;;;8.37;2.30;;;;;;;;;;4887662;29;20197;-86
2024/02/13 03:58:12;;;;;;;3.03;1.87;;;;;;;;;;4899066;29;20559;-86
2024/02/13 04:01:16;;;;;;;7.87;2.23;;;;;;;;;;4899035;29;20194;-86
2024/02/13 04:04:20;;;;;;;6.90;2.93;;;;;;;;;;4899808;29;20522;-87
2024/02/13 04:07:25;;;;;;;5.63;2.13;;;;;;;;;;4899585;29;20572;-87
2024/02/13 04:10:29;;;;;;;6.40;2.70;;;;;;;;;;4898931;29;20643;-86
2024/02/13 04:13:35;;;;;;;6.03;2.23;;;;;;;;;;4888325;29;20189;-86
2024/02/13 04:16:41;;;;;;;5.13;2.40;;;;;;;;;;4888085;29;20213;-86
2024/02/13 04:19:45;;;;;;;6.63;2.33;;;;;;;;;;4888029;29;20639;-86
2024/02/13 04:22:49;;;;;;;6.93;2.20;;;;;;;;;;4899090;29;20190;-86
2024/02/13 04:25:54;;;;;;;2.63;1.40;;;;;;;;;;4887422;29;20221;-86
2024/02/13 04:28:58;;;;;;;3.83;1.43;;;;;;;;;;4887396;29;20186;-87
2024/02/13 04:32:02;;;;;;;2.23;1.60;;;;;;;;;;4898124;29;20193;-86
2024/02/13 04:35:10;;;;;;;3.73;1.60;;;;;;;;;;4898154;29;20190;-86
2024/02/13 04:38:14;;;;;;;6.20;1.60;;;;;;;;;;4887195;29;20170;-86
2024/02/13 04:41:18;;;;;;;3.20;1.60;;;;;;;;;;4898486;29;20193;-86
2024/02/13 04:44:26;;;;;;;3.73;1.70;;;;;;;;;;4897718;29;20178;-87
2024/02/13 04:47:31;;;;;;;5.90;1.70;;;;;;;;;;4876849;29;20213;-86
2024/02/13 04:50:35;;;;;;;4.17;1.67;;;;;;;;;;4887592;29;20194;-86
2024/02/13 04:53:41;;;;;;;4.23;1.77;;;;;;;;;;4898079;29;20189;-87
2024/02/13 04:56:47;;;;;;;7.27;1.97;;;;;;;;;;4897517;29;20217;-86
2024/02/13 04:59:51;;;;;;;5.53;2.37;;;;;;;;;;4897881;29;20627;-86
2024/02/13 05:03:03;;;;;;;4.93;2.23;;;;;;;;;;4898217;29;20543;-86
2024/02/13 05:09:30;;;;;;;4.53;2.30;;;;;;;;;;4897780;29;20646;-86
2024/02/13 05:12:34;;;;;;;6.23;2.73;;;;;;;;;;4886979;29;20185;-86
2024/02/13 05:15:38;;;;;;;8.87;2.27;;;;;;;;;;4908221;29;20567;-86
2024/02/13 05:18:43;;;;;;;10.30;2.80;;;;;;;;;;4897408;29;20182;-86
2024/02/13 05:21:47;;;;;;;8.50;2.73;;;;;;;;;;4886998;29;20194;-86
2024/02/13 05:24:51;;;;;;;6.83;2.30;;;;;;;;;;4908127;29;20185;-87
2024/02/13 05:27:56;;;;;;;5.63;2.50;;;;;;;;;;4885836;29;20213;-87
2024/02/13 05:31:00;;;;;;;7.33;2.93;;;;;;;;;;4898047;29;20655;-86
2024/02/13 05:34:06;;;;;;;7.60;2.20;;;;;;;;;;4897027;29;20181;-86
2024/02/13 05:37:10;;;;;;;6.30;2.60;;;;;;;;;;4896487;29;20217;-87
2024/02/13 05:40:14;;;;;;;6.77;2.50;;;;;;;;;;4897656;29;20185;-87
2024/02/13 05:43:19;;;;;;;5.23;2.47;;;;;;;;;;4896645;29;20189;-86
2024/02/13 05:46:24;;;;;;;7.33;2.40;;;;;;;;;;4896848;29;20222;-86
2024/02/13 05:49:28;;;;;;;5.43;2.67;;;;;;;;;;4885982;29;20174;-87
2024/02/13 05:52:33;;;;;;;7.40;2.80;;;;;;;;;;4896484;29;20197;-86
2024/02/13 05:55:38;;;;;;;6.23;2.43;;;;;;;;;;4896706;29;20221;-88
2024/02/13 05:58:42;;;;;;;5.50;2.80;;;;;;;;;;4897088;29;20181;-88
2024/02/13 06:01:47;;;;;;;6.67;2.43;;;;;;;;;;4896086;29;20532;-87
2024/02/13 06:04:51;;;;;;;5.53;2.50;;;;;;;;;;4896029;29;20190;-87
2024/02/13 06:07:55;;;;;;;7.33;2.43;;;;;;;;;;4895920;29;20209;-88
2024/02/13 06:11:00;;;;;;;4.07;2.40;;;;;;;;;;4886545;29;20190;-85
2024/02/13 06:14:04;;;;;;;6.97;2.60;;;;;;;;;;4897729;29;20186;-85
2024/02/13 06:17:08;;;;;;;5.33;2.50;;;;;;;;;;4896625;29;20217;-85
2024/02/13 06:20:12;;;;;;;11.23;2.50;;;;;;;;;;4897510;29;20190;-85
2024/02/13 06:23:17;;;;;;;5.60;2.97;;;;;;;;;;4897488;29;20523;-86
2024/02/13 06:26:21;;;;;;;5.80;2.67;;;;;;;;;;4896371;29;20217;-85
2024/02/13 06:29:25;;;;;;;3.97;2.40;;;;;;;;;;4907882;29;20531;-86
2024/02/13 06:32:30;;;;;;;5.53;2.47;;;;;;;;;;4897352;29;20654;-85
2024/02/13 06:35:34;;;;;;;5.97;2.40;;;;;;;;;;4896941;29;20237;-85
2024/02/13 06:38:52;;;;;;;5.93;2.77;;;;;;;;;;4898820;29;20182;-85
2024/02/13 06:41:56;;;;;;;7.90;2.60;;;;;;;;;;4900536;29;20185;-83
2024/02/13 06:45:00;;;;;;;6.50;2.47;;;;;;;;;;4900810;29;20193;-88
2024/02/13 06:48:09;;;;;;;40.67;23.80;;;;;;;;;;4889482;29;20205;-89
2024/02/13 06:51:15;;;;;;;9.10;4.70;;;;;;;;;;4910675;29;20650;-88
2024/02/13 06:54:19;;;;;;;7.43;4.70;;;;;;;;;;4888750;29;20186;-88
2024/02/13 06:57:23;;;;;;;6.93;3.53;;;;;;;;;;4899290;29;20186;-88
2024/02/13 07:00:30;;;;;;;27.87;14.37;;;;;;;;;;4900052;29;20190;-86
2024/02/13 07:03:34;;;;;;;12.40;7.30;;;;;;;;;;4900253;29;20190;-87
2024/02/13 07:06:38;;;;;;;41.87;21.30;;;;;;;;;;4887969;29;20232;-87
2024/02/13 07:09:45;;;;;;;39.70;31.37;;;;;;;;;;4899510;29;20178;-87
2024/02/13 07:12:49;;;;;;;14.40;6.50;;;;;;;;;;4899795;29;20527;-86
2024/02/13 07:15:53;;;;;;;11.87;3.80;;;;;;;;;;4898886;29;20221;-87
2024/02/13 07:18:58;;;;;;;7.10;3.43;;;;;;;;;;4899750;29;20186;-87
2024/02/13 07:22:02;;;;;;;5.73;3.00;;;;;;;;;;4898342;29;20532;-87
2024/02/13 07:25:08;;;;;;;7.07;2.57;;;;;;;;;;4887207;29;20190;-88
2024/02/13 07:28:13;;;;;;;6.87;2.67;;;;;;;;;;4898348;29;20213;-88
2024/02/13 07:31:19;;;;;;;3.30;2.33;;;;;;;;;;4909170;29;20181;-87
2024/02/13 07:34:23;;;;;;;6.40;2.57;;;;;;;;;;4887139;29;20177;-88
2024/02/13 07:37:28;;;;;;;6.20;2.87;;;;;;;;;;4887845;29;20182;-87
2024/02/13 07:40:32;;;;;;;5.00;2.50;;;;;;;;;;4886917;29;20174;-87
2024/02/13 07:43:36;;;;;;;5.67;3.37;;;;;;;;;;4887969;29;20646;-82
2024/02/13 07:46:40;;;;;;;31.30;23.23;;;;;;;;;;4898279;29;20217;-86
2024/02/13 07:49:44;;;;;;;33.63;25.07;;;;;;;;;;4898049;29;20178;-87
2024/02/13 07:52:48;;;;;;;11.43;9.27;;;;;;;;;;4888320;29;20189;-87
2024/02/13 07:56:12;;;;;;;6.60;4.03;;;;;;;;;;4889644;29;20229;-90
2024/02/13 07:59:17;;;;;;;6.90;3.63;;;;;;;;;;4898401;29;20639;-89
2024/02/13 08:02:25;;;;;;;6.53;3.67;;;;;;;;;;4897605;29;20183;-87
2024/02/13 08:05:33;;;;;;;9.70;3.87;;;;;;;;;;4897252;29;20237;-88
2024/02/13 08:08:37;;;;;;;5.80;3.40;;;;;;;;;;4897519;29;20209;-88
2024/02/13 08:11:42;;;;;;;8.60;3.57;;;;;;;;;;4886758;29;20197;-88
2024/02/13 08:14:46;;;;;;;8.30;4.70;;;;;;;;;;4887204;29;20190;-88
2024/02/13 08:17:50;;;;;;;5.47;3.30;;;;;;;;;;4897724;29;20181;-86
2024/02/13 08:20:54;;;;;;;6.80;2.97;;;;;;;;;;4898743;29;20236;-85
2024/02/13 08:24:00;;;;;;;4.87;2.67;;;;;;;;;;4898538;29;20194;-84
2024/02/13 08:27:08;;;;;;;8.27;2.40;;;;;;;;;;4897375;29;20225;-87
2024/02/13 08:30:12;;;;;;;5.13;2.47;;;;;;;;;;4886325;29;20635;-87
2024/02/13 08:33:17;;;;;;;9.77;2.63;;;;;;;;;;4886473;29;20643;-87
2024/02/13 08:36:24;;;;;;;6.47;2.60;;;;;;;;;;4886034;29;20593;-87
2024/02/13 08:39:28;;;;;;;6.47;2.93;;;;;;;;;;4876025;29;20178;-88
2024/02/13 08:42:34;;;;;;;10.03;4.40;;;;;;;;;;4886526;29;20182;-88
2024/02/13 08:45:39;;;;;;;9.50;3.27;;;;;;;;;;4896657;29;20296;-88
2024/02/13 08:48:43;;;;;;;7.40;2.53;;;;;;;;;;4886411;29;20565;-89
2024/02/13 08:51:48;;;;;;;4.47;2.50;;;;;;;;;;4897206;29;20643;-87
2024/02/13 08:54:52;;;;;;;8.40;3.00;;;;;;;;;;4900743;29;20642;-91
2024/02/13 08:57:57;;;;;;;7.50;2.37;;;;;;;;;;4890492;29;20186;-88
2024/02/13 09:01:02;;;;;;;7.43;2.40;;;;;;;;;;4900478;29;20186;-89
2024/02/13 09:04:06;;;;;;;5.37;2.20;;;;;;;;;;4900955;29;20190;-88
2024/02/13 09:07:30;;;;;;;5.70;1.83;;;;;;;;;;4901539;29;20193;-88
2024/02/13 09:10:46;;;;;;;6.67;2.33;;;;;;;;;;4901208;29;20178;-88
2024/02/13 09:13:51;;;;;;;3.63;1.90;;;;;;;;;;4901029;29;20646;-89
2024/02/13 09:16:57;;;;;;;4.40;1.70;;;;;;;;;;4890442;29;20217;-88
2024/02/13 09:20:02;;;;;;;5.67;2.33;;;;;;;;;;4900468;29;20197;-88
2024/02/13 09:23:09;;;;;;;7.43;1.93;;;;;;;;;;4903624;29;20193;-89
2024/02/13 09:26:13;;;;;;;3.43;1.57;;;;;;;;;;4894145;29;20226;-89
2024/02/13 09:29:18;;;;;;;11.43;1.97;;;;;;;;;;4904523;29;20583;-90
2024/02/13 09:32:22;;;;;;;6.47;2.30;;;;;;;;;;4906212;29;20532;-89
2024/02/13 09:35:27;;;;;;;5.27;1.40;;;;;;;;;;4895698;29;20217;-90
2024/02/13 09:38:35;;;;;;;5.57;1.60;;;;;;;;;;4906070;29;20182;-89
2024/02/13 09:41:41;;;;;;;6.97;1.60;;;;;;;;;;4894051;29;20194;-89
2024/02/13 09:44:47;;;;;;;5.97;1.50;;;;;;;;;;4894166;29;20186;-90
2024/02/13 09:47:52;;;;;;;4.00;1.20;;;;;;;;;;4904359;29;20186;-89
2024/02/13 09:51:01;;;;;;;5.37;1.10;;;;;;;;;;4893197;29;20190;-89
2024/02/13 09:54:07;;;;;;;11.00;5.33;;;;;;;;;;4893480;29;20190;-89
2024/02/13 09:57:12;;;;;;;50.53;25.00;;;;;;;;;;4903240;29;20217;-89
2024/02/13 10:00:18;;;;;;;43.87;19.50;;;;;;;;;;4881796;29;20185;-89
2024/02/13 10:03:22;;;;;;;31.90;13.47;;;;;;;;;;4903145;29;20193;-89
2024/02/13 10:06:27;;;;;;;3.37;1.40;;;;;;;;;;4902639;29;20244;-89
2024/02/13 10:09:32;;;;;;;6.20;1.47;;;;;;;;;;4892015;29;20209;-90
2024/02/13 10:12:49;;;;;;;2.60;0.97;;;;;;;;;;4902510;29;20190;-89
2024/02/13 10:15:54;;;;;;;6.50;1.30;;;;;;;;;;4904905;29;20225;-89
2024/02/13 10:19:01;;;;;;;2.60;1.17;;;;;;;;;;4950542;28;20512;-88
2024/02/13 10:22:06;;;;;;;5.93;1.50;;;;;;;;;;4904460;29;20189;-89
2024/02/13 10:25:11;;;;;;;4.77;1.30;;;;;;;;;;4904201;29;20225;-89
2024/02/13 10:28:17;;;;;;;4.00;1.37;;;;;;;;;;4892850;29;20182;-89
2024/02/13 10:31:23;;;;;;;5.70;1.43;;;;;;;;;;4893045;29;20190;-89
2024/02/13 10:34:27;;;;;;;5.67;1.17;;;;;;;;;;4903414;29;20182;-89
2024/02/13 10:37:31;;;;;;;5.87;1.30;;;;;;;;;;4892030;29;20189;-88
2024/02/13 10:45:57;;;;;;;6.40;1.60;;;;;;;;;;4911735;29;20698;-92
2024/02/13 10:49:14;;;;;;;6.00;1.00;;;;;;;;;;4891633;29;20206;-88
2024/02/13 10:52:21;;;;;;;3.20;1.07;;;;;;;;;;4901810;29;20186;-92
2024/02/13 10:55:26;;;;;;;3.93;1.13;;;;;;;;;;4902074;29;20221;-87
2024/02/13 10:58:56;;;;;;;6.60;2.13;;;;;;;;;;4894213;29;20177;-91
2024/02/13 11:02:01;;;;;;;5.00;1.50;;;;;;;;;;4890509;29;20353;-90
2024/02/13 11:05:08;;;;;;;6.40;1.70;;;;;;;;;;4881398;29;20190;-92
2024/02/13 11:08:15;;;;;;;3.50;1.50;;;;;;;;;;4890931;29;20186;-92
2024/02/13 11:11:23;;;;;;;4.30;1.00;;;;;;;;;;4890035;29;20186;-92
2024/02/13 11:14:27;;;;;;;4.33;1.50;;;;;;;;;;4890007;29;20185;-89
2024/02/13 11:17:31;;;;;;;3.93;1.90;;;;;;;;;;4900870;29;20193;-88
2024/02/13 11:20:50;;;;;;;10.60;4.30;;;;;;;;;;4899787;29;20532;-90
2024/02/13 11:24:20;;;;;;;6.57;3.00;;;;;;;;;;4899336;29;20178;-90
2024/02/13 11:27:28;;;;;;;7.23;2.63;;;;;;;;;;4888722;29;20182;-90
2024/02/13 11:30:33;;;;;;;4.97;1.80;;;;;;;;;;4899321;29;20213;-90
2024/02/13 11:33:37;;;;;;;6.13;1.57;;;;;;;;;;4910386;29;20190;-90
2024/02/13 11:36:48;;;;;;;3.40;1.47;;;;;;;;;;4878016;29;20217;-91
2024/02/13 11:40:04;;;;;;;4.50;1.60;;;;;;;;;;4900511;29;20182;-90
2024/02/13 11:43:20;;;;;;;5.23;1.20;;;;;;;;;;4891005;29;20182;-88
2024/02/13 11:46:24;;;;;;;5.47;1.40;;;;;;;;;;4900134;29;20213;-89
2024/02/13 11:49:30;;;;;;;7.03;1.10;;;;;;;;;;4878768;29;20209;-89
2024/02/13 11:52:34;;;;;;;3.50;1.10;;;;;;;;;;4889095;29;20194;-90
2024/02/13 11:55:39;;;;;;;2.13;1.00;;;;;;;;;;4888484;29;20221;-87
2024/02/13 11:58:43;;;;;;;6.07;1.57;;;;;;;;;;4900556;29;20186;-89
2024/02/13 12:01:48;;;;;;;1.80;0.90;;;;;;;;;;4899668;29;20190;-86
2024/02/13 12:05:00;;;;;;;3.83;0.83;;;;;;;;;;4899465;29;20198;-87
2024/02/13 12:08:54;;;;;;;3.77;1.00;;;;;;;;;;4888514;29;20193;-92
2024/02/13 12:11:59;;;;;;;2.90;0.90;;;;;;;;;;4898937;29;20189;-88
2024/02/13 12:15:03;;;;;;;4.73;1.33;;;;;;;;;;4898791;29;20185;-88
2024/02/13 12:18:11;;;;;;;3.47;0.90;;;;;;;;;;4898591;29;20189;-88
2024/02/13 12:21:16;;;;;;;3.73;0.87;;;;;;;;;;4887455;29;20182;-88
2024/02/13 12:24:20;;;;;;;2.20;0.97;;;;;;;;;;4887858;29;20185;-88
2024/02/13 12:27:25;;;;;;;4.60;1.10;;;;;;;;;;4887576;29;20635;-88
2024/02/13 12:30:29;;;;;;;4.73;1.00;;;;;;;;;;4898278;29;20214;-88
2024/02/13 12:33:33;;;;;;;5.03;1.00;;;;;;;;;;4898357;29;20193;-88
2024/02/13 12:36:38;;;;;;;3.67;0.80;;;;;;;;;;4887354;29;20221;-88
2024/02/13 12:39:43;;;;;;;4.33;0.90;;;;;;;;;;4897635;29;20185;-88
2024/02/13 12:42:47;;;;;;;6.10;2.77;;;;;;;;;;4899125;29;20186;-87
2024/02/13 12:46:02;;;;;;;1.73;0.80;;;;;;;;;;4898476;29;20229;-87
2024/02/13 12:49:10;;;;;;;6.60;1.00;;;;;;;;;;4887697;29;20320;-88
2024/02/13 12:52:19;;;;;;;4.30;1.23;;;;;;;;;;4887219;29;20185;-88
2024/02/13 12:55:25;;;;;;;7.57;2.20;;;;;;;;;;4897532;29;20222;-87
2024/02/13 12:58:30;;;;;;;6.07;1.90;;;;;;;;;;4898815;29;20189;-88
2024/02/13 13:01:43;;;;;;;5.90;1.70;;;;;;;;;;4897834;29;20178;-89
2024/02/13 13:04:51;;;;;;;6.30;1.10;;;;;;;;;;4887200;29;20182;-87
2024/02/13 13:08:14;;;;;;;3.03;1.00;;;;;;;;;;4887160;29;20178;-88
2024/02/13 13:12:15;;;;;;;2.67;1.00;;;;;;;;;;4898704;29;20186;-89
2024/02/13 13:15:20;;;;;;;3.03;0.80;;;;;;;;;;4898272;29;20225;-89
2024/02/13 13:18:28;;;;;;;7.37;1.10;;;;;;;;;;4879682;29;20185;-89
2024/02/13 13:21:33;;;;;;;2.53;0.90;;;;;;;;;;4899480;29;20182;-88
2024/02/13 13:24:38;;;;;;;4.50;0.70;;;;;;;;;;4888110;29;20182;-89
2024/02/13 13:27:42;;;;;;;4.50;0.87;;;;;;;;;;4878390;29;20194;-89
2024/02/13 13:30:54;;;;;;;2.57;0.80;;;;;;;;;;4887310;29;20683;-89
2024/02/13 13:33:59;;;;;;;3.40;1.27;;;;;;;;;;4899416;29;20181;-89
2024/02/13 13:37:04;;;;;;;4.27;0.83;;;;;;;;;;4887543;29;20229;-86
2024/02/13 13:40:16;;;;;;;3.63;0.67;;;;;;;;;;4887765;29;20186;-86
2024/02/13 13:43:21;;;;;;;2.73;1.00;;;;;;;;;;4897523;29;20182;-86
2024/02/13 13:46:25;;;;;;;3.97;0.97;;;;;;;;;;4898033;29;20225;-86
2024/02/13 13:49:30;;;;;;;2.67;0.80;;;;;;;;;;4907930;29;20217;-87
2024/02/13 13:52:34;;;;;;;1.63;0.90;;;;;;;;;;4888495;29;20523;-87
2024/02/13 13:55:38;;;;;;;2.23;0.70;;;;;;;;;;4944680;28;20571;-87
2024/02/13 13:58:42;;;;;;;2.63;0.80;;;;;;;;;;4897905;29;20186;-86
2024/02/13 14:01:46;;;;;;;3.47;0.90;;;;;;;;;;4897927;29;20634;-87
2024/02/13 14:04:50;;;;;;;1.83;0.60;;;;;;;;;;4943479;28;20190;-86
2024/02/13 14:07:54;;;;;;;2.90;0.70;;;;;;;;;;4898382;29;20205;-86
2024/02/13 14:10:58;;;;;;;3.63;0.90;;;;;;;;;;4897893;29;20213;-86
2024/02/13 14:14:03;;;;;;;2.70;0.70;;;;;;;;;;4898648;29;20198;-86
2024/02/13 14:17:07;;;;;;;2.33;0.80;;;;;;;;;;4943129;28;20225;-86
2024/02/13 14:20:14;;;;;;;2.33;0.60;;;;;;;;;;4897471;29;20182;-88
2024/02/13 14:23:20;;;;;;;1.37;0.77;;;;;;;;;;4898305;29;20182;-83
2024/02/13 14:26:25;;;;;;;2.23;0.80;;;;;;;;;;4897346;29;20221;-89
2024/02/13 14:29:29;;;;;;;1.90;0.80;;;;;;;;;;4897416;29;20182;-88
2024/02/13 14:32:34;;;;;;;4.63;0.97;;;;;;;;;;4896968;29;20185;-89
2024/02/13 14:35:39;;;;;;;3.23;1.03;;;;;;;;;;4887125;29;20226;-89
2024/02/13 14:38:50;;;;;;;2.33;0.87;;;;;;;;;;4888394;29;20177;-89
2024/02/13 14:41:55;;;;;;;2.77;0.90;;;;;;;;;;4897942;29;20189;-89
2024/02/13 14:45:00;;;;;;;1.83;0.90;;;;;;;;;;4887057;29;20190;-89
2024/02/13 14:48:09;;;;;;;3.20;0.90;;;;;;;;;;4889879;29;20186;-89
2024/02/13 14:51:18;;;;;;;2.43;0.90;;;;;;;;;;4886909;29;20218;-88
2024/02/13 14:54:22;;;;;;;1.63;0.80;;;;;;;;;;4886499;29;20189;-88
2024/02/13 14:57:26;;;;;;;1.20;0.63;;;;;;;;;;4886899;29;20186;-88
2024/02/13 15:00:30;;;;;;;3.27;0.73;;;;;;;;;;4889482;29;20190;-88
2024/02/13 15:03:45;;;;;;;2.40;0.80;;;;;;;;;;4900344;29;20186;-88
2024/02/13 15:06:50;;;;;;;2.50;0.73;;;;;;;;;;4896694;28;20229;-87
2024/02/13 15:09:54;;;;;;;2.60;0.70;;;;;;;;;;4903968;29;20222;-86
2024/02/13 15:12:59;;;;;;;3.23;0.80;;;;;;;;;;4915099;29;20170;-86
2024/02/13 15:16:07;;;;;;;1.80;0.80;;;;;;;;;;4905105;29;20229;-86
2024/02/13 15:19:25;;;;;;;1.63;0.70;;;;;;;;;;4906946;29;20186;-87
2024/02/13 15:22:33;;;;;;;3.73;0.80;;;;;;;;;;4903813;29;20182;-87
2024/02/13 15:25:38;;;;;;;10.50;3.47;;;;;;;;;;4904545;29;20201;-86
2024/02/13 15:28:42;;;;;;;7.07;3.27;;;;;;;;;;4901098;29;20194;-86
2024/02/13 15:31:47;;;;;;;31.43;14.90;;;;;;;;;;4897985;29;20217;-89
2024/02/13 15:34:58;;;;;;;19.17;13.60;;;;;;;;;;4887407;29;20182;-88
2024/02/13 15:48:15;;;;;;;71.53;41.93;;;;;;;;;;4900428;29;20188;-88
2024/02/13 15:51:23;;;;;;;13.53;6.53;;;;;;;;;;4901088;29;20202;-88
2024/02/13 15:54:29;;;;;;;6.40;4.00;;;;;;;;;;4901676;29;20185;-88
2024/02/13 15:57:35;;;;;;;5.77;2.73;;;;;;;;;;4900044;29;20194;-87
2024/02/13 16:00:41;;;;;;;2.80;1.70;;;;;;;;;;4888619;29;20180;-89
2024/02/13 16:03:45;;;;;;;3.60;1.40;;;;;;;;;;4882003;29;20181;-89
2024/02/13 16:06:55;;;;;;;1.23;0.83;;;;;;;;;;4910059;29;20598;-89
2024/02/13 16:09:59;;;;;;;3.97;0.90;;;;;;;;;;4894441;29;20182;-89
2024/02/13 16:13:04;;;;;;;1.63;0.90;;;;;;;;;;4894061;29;20186;-89
2024/02/13 16:16:09;;;;;;;2.03;0.97;;;;;;;;;;4895966;29;20217;-88
2024/02/13 16:19:14;;;;;;;3.67;1.10;;;;;;;;;;4905222;29;20185;-86
2024/02/13 16:22:19;;;;;;;2.70;0.90;;;;;;;;;;4903857;29;20178;-86
2024/02/13 16:25:24;;;;;;;5.13;1.10;;;;;;;;;;4904203;29;20221;-87
2024/02/13 16:28:28;;;;;;;2.60;0.80;;;;;;;;;;4894650;29;20182;-87
2024/02/13 16:31:32;;;;;;;1.37;0.57;;;;;;;;;;4905347;29;20205;-85
2024/02/13 16:34:37;;;;;;;1.17;0.70;;;;;;;;;;4905132;29;20185;-85
2024/02/13 16:37:42;;;;;;;0.83;0.60;;;;;;;;;;4925972;29;20186;-86
2024/02/13 16:40:46;;;;;;;3.23;0.73;;;;;;;;;;4903840;29;20182;-86
2024/02/13 16:43:51;;;;;;;1.80;0.60;;;;;;;;;;4904320;29;20186;-87
2024/02/13 16:46:57;;;;;;;2.77;0.90;;;;;;;;;;4904613;29;20225;-85
2024/02/13 16:50:02;;;;;;;3.07;1.87;;;;;;;;;;4904342;29;20182;-86
2024/02/13 16:53:09;;;;;;;2.30;0.80;;;;;;;;;;4903920;29;20181;-86
2024/02/13 16:56:14;;;;;;;4.67;0.60;;;;;;;;;;4903445;29;20225;-86
2024/02/13 16:59:19;;;;;;;2.60;0.70;;;;;;;;;;4903391;29;20182;-86
2024/02/13 17:02:23;;;;;;;3.30;1.00;;;;;;;;;;4903997;29;20627;-86
2024/02/13 17:05:27;;;;;;;3.43;0.80;;;;;;;;;;4914025;29;20225;-86
2024/02/13 17:08:35;;;;;;;2.40;1.20;;;;;;;;;;4903443;29;20185;-87
2024/02/13 17:11:39;;;;;;;1.83;0.70;;;;;;;;;;4914026;29;20221;-87
2024/02/13 17:14:44;;;;;;;2.73;0.80;;;;;;;;;;4923699;29;20185;-87
2024/02/13 17:17:49;;;;;;;1.80;0.80;;;;;;;;;;4900070;29;20186;-86
2024/02/13 17:20:53;;;;;;;3.50;0.80;;;;;;;;;;4899860;29;20186;-87
2024/02/13 17:23:58;;;;;;;4.87;1.30;;;;;;;;;;4911867;29;20190;-87
2024/02/13 17:27:03;;;;;;;2.03;0.80;;;;;;;;;;4899046;29;20217;-86
2024/02/13 17:30:11;;;;;;;5.30;1.20;;;;;;;;;;4897500;29;20185;-86
2024/02/13 17:33:28;;;;;;;2.70;1.20;;;;;;;;;;4899994;29;20190;-87
2024/02/13 17:36:32;;;;;;;3.43;0.90;;;;;;;;;;4894784;29;20217;-87
2024/02/13 17:39:37;;;;;;;3.60;1.00;;;;;;;;;;4891624;29;20178;-86
2024/02/13 17:42:44;;;;;;;1.03;0.80;;;;;;;;;;4902573;29;20190;-86
2024/02/13 17:45:49;;;;;;;3.83;1.00;;;;;;;;;;4903017;29;20213;-86
2024/02/13 17:48:53;;;;;;;4.63;1.10;;;;;;;;;;4902630;29;20185;-87
2024/02/13 17:51:58;;;;;;;1.37;0.87;;;;;;;;;;4903884;29;20213;-86
2024/02/13 17:55:03;;;;;;;1.27;0.70;;;;;;;;;;4893520;29;20205;-86
2024/02/13 17:58:13;;;;;;;4.37;0.90;;;;;;;;;;4903014;29;20186;-86
2024/02/13 18:01:17;;;;;;;6.50;1.00;;;;;;;;;;4903137;29;20182;-86
2024/02/13 18:04:22;;;;;;;5.27;1.10;;;;;;;;;;4901921;29;20189;-87
2024/02/13 18:07:28;;;;;;;2.40;1.00;;;;;;;;;;4911445;29;20213;-86
2024/02/13 18:10:35;;;;;;;4.43;1.10;;;;;;;;;;4900553;29;20186;-87
2024/02/13 18:13:40;;;;;;;1.10;0.77;;;;;;;;;;4900396;29;20193;-86
2024/02/13 18:16:44;;;;;;;2.47;1.10;;;;;;;;;;4909449;29;20225;-87
2024/02/13 18:19:49;;;;;;;3.23;1.00;;;;;;;;;;4902279;29;20189;-86
2024/02/13 18:22:54;;;;;;;2.00;0.90;;;;;;;;;;4901485;29;20186;-87
2024/02/13 18:25:58;;;;;;;2.47;0.73;;;;;;;;;;4901917;29;20217;-86
2024/02/13 18:29:03;;;;;;;2.10;1.10;;;;;;;;;;4890810;29;20182;-86
2024/02/13 18:32:08;;;;;;;2.37;0.90;;;;;;;;;;4888709;29;20210;-85
2024/02/13 18:35:12;;;;;;;3.97;1.13;;;;;;;;;;4912426;29;20217;-87
2024/02/13 18:38:17;;;;;;;2.07;1.00;;;;;;;;;;4902339;29;20189;-87
2024/02/13 18:41:22;;;;;;;1.47;0.70;;;;;;;;;;4891208;29;20647;-87
2024/02/13 18:44:27;;;;;;;2.03;1.10;;;;;;;;;;4902865;29;20186;-86
2024/02/13 18:47:31;;;;;;;6.73;0.93;;;;;;;;;;4901435;29;20186;-87
2024/02/13 18:50:35;;;;;;;1.77;0.93;;;;;;;;;;4923850;29;20182;-87
2024/02/13 18:53:40;;;;;;;2.33;1.10;;;;;;;;;;4901798;29;20186;-87